Yigo, Guam
Current Conditions -  °F | °C
As of 4:58 PM on Tuesday 21 Oct 2014 (Local Time) from PGUA Reporting Station
Clear Clear  
Wind Chill: 83°   Ceiling: Unl
Heat Index: 88°   Visibility: 10mi
Dew Point: 73°   Wind: 10mph
Humidity: 72%   Direction: 40°NE
Pressure: 29.8"   Gusts: NA
Location:  13.53°N, 144.89°E
Report Text: PGUA 210658Z AUTO 04009KT 10SM CLR 28/23 A2980 RMK AO2 SLP081 T02810227 $
Loading
Personal Weather Stations






























Interactive Weather Map New forecast layout! Learn more

10-Day Weather Forecast

Advertisements
Track Severe Weather on mobile